Time;durP1;ratioP1;P1;durP2;ratioP2;P2;SDS_P1;SDS_P2;PMS_P1;PMS_P2;Temp;Humidity;BMP_temperature;BMP_pressure;BME280_temperature;BME280_humidity;BME280_pressure;Samples;Min_cycle;Max_cycle;Signal;HPM_P1;HPM_P2
2023/08/03 00:00:35;;;;;;;0.20;0.20;;;;;;;;;;5034850;28;20041;-72
2023/08/03 00:03:01;;;;;;;2.05;1.35;;;;;;;;;;5054476;28;20115;-71
2023/08/03 00:05:26;;;;;;;0.20;0.20;;;;;;;;;;5072867;28;20071;-70
2023/08/03 00:07:52;;;;;;;0.20;0.20;;;;;;;;;;5072472;28;20028;-70
2023/08/03 00:10:18;;;;;;;11.20;3.92;;;;;;;;;;5071719;28;20036;-71
2023/08/03 00:12:44;;;;;;;0.20;0.20;;;;;;;;;;5072112;28;20059;-70
2023/08/03 00:15:10;;;;;;;0.20;0.20;;;;;;;;;;5071899;28;20452;-70
2023/08/03 00:17:36;;;;;;;0.40;0.40;;;;;;;;;;5071386;28;20123;-70
2023/08/03 00:20:04;;;;;;;0.20;0.20;;;;;;;;;;5071987;28;20472;-71
2023/08/03 00:22:29;;;;;;;0.10;0.10;;;;;;;;;;5071782;28;20169;-69
2023/08/03 00:24:55;;;;;;;0.22;0.22;;;;;;;;;;5072055;28;20024;-71
2023/08/03 00:27:20;;;;;;;0.20;0.20;;;;;;;;;;5071738;28;20036;-69
2023/08/03 00:29:46;;;;;;;0.90;0.55;;;;;;;;;;5070777;28;20476;-70
2023/08/03 00:32:11;;;;;;;0.20;0.20;;;;;;;;;;5052317;28;20021;-70
2023/08/03 00:34:36;;;;;;;0.57;0.57;;;;;;;;;;5070284;28;20514;-70
2023/08/03 00:37:02;;;;;;;0.20;0.20;;;;;;;;;;5051927;28;20047;-71
2023/08/03 00:39:28;;;;;;;0.20;0.20;;;;;;;;;;5052225;28;20033;-71
2023/08/03 00:41:53;;;;;;;0.20;0.20;;;;;;;;;;5052239;28;20049;-70
2023/08/03 00:44:19;;;;;;;0.20;0.20;;;;;;;;;;5071194;28;20116;-69
2023/08/03 00:46:45;;;;;;;0.20;0.20;;;;;;;;;;5053928;28;20127;-69
2023/08/03 00:49:10;;;;;;;0.20;0.20;;;;;;;;;;5072411;28;20036;-70
2023/08/03 00:51:36;;;;;;;0.20;0.20;;;;;;;;;;5072015;28;20082;-69
2023/08/03 00:54:02;;;;;;;0.20;0.20;;;;;;;;;;5072196;28;20034;-69
2023/08/03 00:56:27;;;;;;;0.20;0.20;;;;;;;;;;5054271;28;20119;-70
2023/08/03 00:58:53;;;;;;;0.25;0.25;;;;;;;;;;5054150;28;20112;-69
2023/08/03 01:01:20;;;;;;;0.20;0.20;;;;;;;;;;5071504;28;20048;-69
2023/08/03 01:03:46;;;;;;;0.20;0.20;;;;;;;;;;5071901;28;20479;-69
2023/08/03 01:06:12;;;;;;;0.30;0.30;;;;;;;;;;5064954;28;20063;-69
2023/08/03 01:08:37;;;;;;;0.10;0.10;;;;;;;;;;5064024;28;20024;-69
2023/08/03 01:11:03;;;;;;;0.20;0.20;;;;;;;;;;5086320;28;20036;-69
2023/08/03 01:13:28;;;;;;;0.20;0.20;;;;;;;;;;5092066;28;20024;-69
2023/08/03 01:15:54;;;;;;;0.10;0.10;;;;;;;;;;5070377;28;20029;-69
2023/08/03 01:18:20;;;;;;;0.20;0.20;;;;;;;;;;5070461;28;20032;-69
2023/08/03 01:20:46;;;;;;;0.20;0.20;;;;;;;;;;5053889;28;20479;-70
2023/08/03 01:23:12;;;;;;;0.20;0.20;;;;;;;;;;5071688;28;20044;-70
2023/08/03 01:25:37;;;;;;;0.20;0.20;;;;;;;;;;5071580;28;20074;-71
2023/08/03 01:28:03;;;;;;;0.60;0.60;;;;;;;;;;5071293;28;20395;-70
2023/08/03 01:30:29;;;;;;;0.22;0.22;;;;;;;;;;5074339;28;20060;-70
2023/08/03 01:32:55;;;;;;;2.40;0.95;;;;;;;;;;5057001;28;20087;-71
2023/08/03 01:35:20;;;;;;;0.20;0.20;;;;;;;;;;5073743;28;20043;-70
2023/08/03 01:37:46;;;;;;;0.40;0.40;;;;;;;;;;5075220;28;20061;-70
2023/08/03 01:40:13;;;;;;;0.47;0.47;;;;;;;;;;5075233;28;20025;-70
2023/08/03 06:50:32;;;;;;;0.95;0.57;;;;;;;;;;5058836;28;20071;-75
2023/08/03 06:52:58;;;;;;;0.30;0.30;;;;;;;;;;5060365;28;20029;-71
2023/08/03 06:55:24;;;;;;;8.10;1.10;;;;;;;;;;5077878;28;20036;-73
2023/08/03 06:57:50;;;;;;;2.92;2.65;;;;;;;;;;5073400;28;20107;-71
2023/08/03 07:00:15;;;;;;;1.40;0.60;;;;;;;;;;5064336;28;20507;-71
2023/08/03 07:02:42;;;;;;;0.35;0.35;;;;;;;;;;5080184;28;20042;-72
2023/08/03 07:05:07;;;;;;;0.20;0.20;;;;;;;;;;5086183;28;20061;-72
2023/08/03 07:07:33;;;;;;;0.40;0.40;;;;;;;;;;5085482;28;20053;-72
2023/08/03 07:10:01;;;;;;;3.00;1.15;;;;;;;;;;5067171;28;20056;-73
2023/08/03 07:12:27;;;;;;;6.55;2.25;;;;;;;;;;5057272;28;20044;-72
2023/08/03 07:14:52;;;;;;;0.82;0.35;;;;;;;;;;5044736;28;20033;-73
2023/08/03 07:17:18;;;;;;;0.35;0.35;;;;;;;;;;5042886;28;20058;-73
2023/08/03 07:19:43;;;;;;;0.30;0.30;;;;;;;;;;5043614;28;20444;-73
2023/08/03 07:22:09;;;;;;;1.55;0.68;;;;;;;;;;5045739;28;20037;-73
2023/08/03 07:24:35;;;;;;;0.30;0.30;;;;;;;;;;5063967;28;20028;-72
2023/08/03 07:27:00;;;;;;;0.30;0.30;;;;;;;;;;5063038;28;20488;-72
2023/08/03 07:29:26;;;;;;;0.30;0.30;;;;;;;;;;5066301;28;20036;-73
2023/08/03 07:31:52;;;;;;;4.40;1.33;;;;;;;;;;5083791;28;20032;-73
2023/08/03 07:34:17;;;;;;;1.83;0.85;;;;;;;;;;5078363;28;20589;-74
2023/08/03 07:36:43;;;;;;;0.30;0.30;;;;;;;;;;5080931;28;20032;-73
2023/08/03 07:39:09;;;;;;;0.40;0.40;;;;;;;;;;5063564;28;20029;-72
2023/08/03 07:41:34;;;;;;;0.30;0.30;;;;;;;;;;5043550;28;20031;-72
2023/08/03 07:44:00;;;;;;;0.40;0.40;;;;;;;;;;5043520;28;20555;-74
2023/08/03 07:46:25;;;;;;;0.45;0.43;;;;;;;;;;5043329;28;20587;-72
2023/08/03 07:48:50;;;;;;;0.40;0.32;;;;;;;;;;5044265;28;20037;-72
2023/08/03 07:51:17;;;;;;;0.30;0.30;;;;;;;;;;5045764;28;20673;-72
2023/08/03 07:53:43;;;;;;;4.47;1.42;;;;;;;;;;5061605;28;20511;-72
2023/08/03 07:56:18;;;;;;;0.30;0.30;;;;;;;;;;5064578;28;20036;-71
2023/08/03 07:58:43;;;;;;;0.38;0.38;;;;;;;;;;5066174;28;20086;-70
2023/08/03 08:01:09;;;;;;;0.30;0.30;;;;;;;;;;5068456;28;20446;-73
2023/08/03 08:03:35;;;;;;;0.43;0.43;;;;;;;;;;5056613;28;20448;-72
2023/08/03 08:06:14;;;;;;;0.30;0.30;;;;;;;;;;5059160;28;20025;-71
2023/08/03 08:08:39;;;;;;;0.38;0.38;;;;;;;;;;5040169;28;20031;-74
2023/08/03 08:11:05;;;;;;;5.43;1.25;;;;;;;;;;5066288;28;20120;-73
2023/08/03 08:13:31;;;;;;;16.58;3.15;;;;;;;;;;5054955;28;20068;-72
2023/08/03 08:16:00;;;;;;;0.30;0.30;;;;;;;;;;5056177;28;20047;-72
2023/08/03 08:18:29;;;;;;;4.95;1.85;;;;;;;;;;5062941;28;20066;-71
2023/08/03 08:20:58;;;;;;;0.55;0.55;;;;;;;;;;5073114;28;20043;-71
2023/08/03 08:23:23;;;;;;;;;;;;;;;;;;5063219;28;20043;-73
2023/08/03 08:25:49;;;;;;;0.40;0.40;;;;;;;;;;5060693;28;19916;-73
2023/08/03 08:28:14;;;;;;;0.50;0.50;;;;;;;;;;5057145;28;20123;-72
2023/08/03 08:30:40;;;;;;;0.47;0.47;;;;;;;;;;5050268;28;20107;-72
2023/08/03 08:33:05;;;;;;;0.40;0.40;;;;;;;;;;5067889;28;20036;-72
2023/08/03 08:35:31;;;;;;;0.55;0.55;;;;;;;;;;5065286;28;20033;-72
2023/08/03 08:37:59;;;;;;;0.43;0.40;;;;;;;;;;5063828;28;20029;-72
2023/08/03 08:40:24;;;;;;;0.85;0.60;;;;;;;;;;5064152;28;21345;-76
2023/08/03 08:42:53;;;;;;;3.03;1.10;;;;;;;;;;5066155;28;20059;-72
2023/08/03 08:45:19;;;;;;;;;;;;;;;;;;5070399;28;20064;-72
2023/08/03 08:47:45;;;;;;;0.50;0.50;;;;;;;;;;5081669;28;19944;-72
2023/08/03 08:50:11;;;;;;;0.40;0.40;;;;;;;;;;5085540;28;20074;-73
2023/08/03 08:52:38;;;;;;;0.40;0.40;;;;;;;;;;5075645;28;20503;-73
2023/08/03 08:55:17;;;;;;;0.30;0.30;;;;;;;;;;5063284;28;20055;-73
2023/08/03 08:57:43;;;;;;;0.80;0.77;;;;;;;;;;5060335;28;20052;-72
2023/08/03 09:00:09;;;;;;;0.30;0.30;;;;;;;;;;5050367;28;20032;-73
2023/08/03 09:02:35;;;;;;;0.40;0.40;;;;;;;;;;5044618;28;20204;-72
2023/08/03 09:05:10;;;;;;;0.60;0.60;;;;;;;;;;5043101;28;20036;-73
2023/08/03 09:07:36;;;;;;;0.40;0.40;;;;;;;;;;5045499;28;20489;-73
2023/08/03 09:10:02;;;;;;;0.50;0.50;;;;;;;;;;5065077;28;20044;-72
2023/08/03 09:12:27;;;;;;;4.03;1.17;;;;;;;;;;5079718;28;20483;-73
2023/08/03 09:14:53;;;;;;;0.40;0.40;;;;;;;;;;5085299;28;20054;-72
2023/08/03 09:17:19;;;;;;;2.28;0.60;;;;;;;;;;5061455;28;20035;-70
2023/08/03 09:19:45;;;;;;;0.68;0.68;;;;;;;;;;5065100;28;20036;-70
2023/08/03 09:22:11;;;;;;;1.38;0.88;;;;;;;;;;5064948;28;20032;-69
2023/08/03 09:24:37;;;;;;;0.65;0.65;;;;;;;;;;5076794;28;20523;-70
2023/08/03 09:27:03;;;;;;;1.35;1.25;;;;;;;;;;5068179;28;20103;-70
2023/08/03 09:29:32;;;;;;;0.47;0.47;;;;;;;;;;5051161;28;20060;-71
2023/08/03 09:32:01;;;;;;;0.30;0.30;;;;;;;;;;5027610;28;20392;-71
2023/08/03 09:34:40;;;;;;;0.38;0.38;;;;;;;;;;5045587;28;20205;-70
2023/08/03 09:37:06;;;;;;;0.43;0.43;;;;;;;;;;5043457;28;20037;-69
2023/08/03 09:39:36;;;;;;;1.02;0.98;;;;;;;;;;5043089;28;20029;-70
2023/08/03 09:42:06;;;;;;;2.25;0.70;;;;;;;;;;5049118;28;20056;-71
2023/08/03 09:44:33;;;;;;;1.67;1.23;;;;;;;;;;5041258;28;20086;-70
2023/08/03 09:47:02;;;;;;;3.22;1.05;;;;;;;;;;5065019;28;20480;-71
2023/08/03 09:49:27;;;;;;;;;;;;;;;;;;5065894;28;20025;-68
2023/08/03 09:51:55;;;;;;;0.77;0.70;;;;;;;;;;5067731;28;20322;-69
2023/08/03 09:54:21;;;;;;;0.50;0.50;;;;;;;;;;5048243;28;20267;-69
2023/08/03 09:56:52;;;;;;;0.43;0.43;;;;;;;;;;5048324;28;20083;-68
2023/08/03 09:59:22;;;;;;;0.70;0.70;;;;;;;;;;5048653;28;20123;-70
2023/08/03 10:01:49;;;;;;;0.30;0.30;;;;;;;;;;5048559;28;20029;-69
2023/08/03 10:04:15;;;;;;;1.17;0.70;;;;;;;;;;5048432;28;20025;-68
2023/08/03 10:06:42;;;;;;;2.20;2.03;;;;;;;;;;5048746;28;20064;-68
2023/08/03 10:09:09;;;;;;;0.95;0.80;;;;;;;;;;5064121;28;20072;-70
2023/08/03 10:11:40;;;;;;;0.38;0.38;;;;;;;;;;5070098;28;20496;-68
2023/08/03 10:14:09;;;;;;;0.40;0.40;;;;;;;;;;5070024;28;20456;-67
2023/08/03 10:16:35;;;;;;;0.40;0.40;;;;;;;;;;5069543;28;20036;-68
2023/08/03 10:19:02;;;;;;;1.55;0.52;;;;;;;;;;5086821;28;20450;-69
2023/08/03 10:21:28;;;;;;;0.75;0.63;;;;;;;;;;5088675;28;20422;-69
2023/08/03 10:24:13;;;;;;;1.38;1.27;;;;;;;;;;5071129;28;20068;-68
2023/08/03 10:26:39;;;;;;;1.80;0.88;;;;;;;;;;5068285;28;20103;-67
2023/08/03 10:29:04;;;;;;;8.02;4.20;;;;;;;;;;5069354;28;20135;-69
2023/08/03 10:31:30;;;;;;;1.75;1.25;;;;;;;;;;5050484;28;20040;-69
2023/08/03 10:33:56;;;;;;;0.60;0.60;;;;;;;;;;5069356;28;20043;-68
2023/08/03 10:36:27;;;;;;;0.70;0.70;;;;;;;;;;5063116;28;20449;-67
2023/08/03 10:38:57;;;;;;;1.10;0.88;;;;;;;;;;5057089;28;20024;-68
2023/08/03 10:41:23;;;;;;;1.17;0.90;;;;;;;;;;5078488;28;20059;-68
2023/08/03 10:44:09;;;;;;;0.40;0.40;;;;;;;;;;5069172;28;20044;-69
2023/08/03 10:46:34;;;;;;;4.65;2.83;;;;;;;;;;5075215;28;20496;-69
2023/08/03 10:51:45;;;;;;;0.40;0.40;;;;;;;;;;5047436;28;20502;-70
2023/08/03 10:54:11;;;;;;;1.45;1.00;;;;;;;;;;5065763;28;20029;-69
2023/08/03 10:56:37;;;;;;;0.88;0.88;;;;;;;;;;5066743;28;20037;-69
2023/08/03 10:59:03;;;;;;;1.35;1.25;;;;;;;;;;5067066;28;20028;-69
2023/08/03 11:01:28;;;;;;;0.80;0.80;;;;;;;;;;5067059;28;20063;-72
2023/08/03 11:03:54;;;;;;;0.55;0.55;;;;;;;;;;5068749;28;20032;-69
2023/08/03 11:06:20;;;;;;;1.02;0.95;;;;;;;;;;5069315;28;20444;-68
2023/08/03 11:08:46;;;;;;;0.52;0.52;;;;;;;;;;5068943;28;20399;-69
2023/08/03 11:11:12;;;;;;;0.85;0.70;;;;;;;;;;5068747;28;20040;-68
2023/08/03 11:13:39;;;;;;;0.70;0.70;;;;;;;;;;5051982;28;20032;-70
2023/08/03 11:16:05;;;;;;;1.17;0.77;;;;;;;;;;5047047;28;20065;-69
2023/08/03 11:18:33;;;;;;;0.40;0.40;;;;;;;;;;5047731;28;20029;-69
2023/08/03 11:20:58;;;;;;;1.65;0.93;;;;;;;;;;5047194;28;20037;-70
2023/08/03 11:23:29;;;;;;;3.13;1.42;;;;;;;;;;5059554;28;20353;-70
2023/08/03 11:25:54;;;;;;;0.93;0.85;;;;;;;;;;5067119;28;20040;-68
2023/08/03 11:28:20;;;;;;;2.28;0.57;;;;;;;;;;5067269;28;20233;-70
2023/08/03 11:30:45;;;;;;;3.63;1.30;;;;;;;;;;5068495;28;20400;-70
2023/08/03 11:33:14;;;;;;;2.28;1.05;;;;;;;;;;5068873;28;20043;-67
2023/08/03 11:35:40;;;;;;;1.55;1.10;;;;;;;;;;5050927;28;20039;-70
2023/08/03 11:38:06;;;;;;;2.38;1.27;;;;;;;;;;5069232;28;20387;-70
2023/08/03 11:40:31;;;;;;;1.35;0.85;;;;;;;;;;5068099;28;20392;-67
2023/08/03 11:42:56;;;;;;;4.43;1.25;;;;;;;;;;5068634;28;20036;-68
2023/08/03 11:45:22;;;;;;;1.25;1.02;;;;;;;;;;5068497;28;20523;-70
2023/08/03 11:47:48;;;;;;;1.90;1.08;;;;;;;;;;5069292;28;20036;-72
2023/08/03 11:50:17;;;;;;;1.00;0.82;;;;;;;;;;5051149;28;20132;-74
2023/08/03 11:52:42;;;;;;;;;;;;;;;;;;5069010;28;20055;-67
2023/08/03 11:55:08;;;;;;;0.57;0.57;;;;;;;;;;5068290;28;19909;-70
2023/08/03 12:00:17;;;;;;;1.65;0.90;;;;;;;;;;5066726;28;20442;-67
2023/08/03 12:02:43;;;;;;;0.40;0.40;;;;;;;;;;5060715;28;20499;-68
2023/08/03 12:05:09;;;;;;;2.97;1.02;;;;;;;;;;5055245;28;20031;-69
2023/08/03 12:07:35;;;;;;;2.47;1.48;;;;;;;;;;5061452;28;20029;-70
2023/08/03 12:10:00;;;;;;;0.60;0.60;;;;;;;;;;5066383;28;20357;-70
2023/08/03 12:12:26;;;;;;;1.30;1.20;;;;;;;;;;5049932;28;20029;-71
2023/08/03 12:14:51;;;;;;;1.05;0.95;;;;;;;;;;5086537;28;20435;-68
2023/08/03 12:17:17;;;;;;;0.50;0.50;;;;;;;;;;5068300;28;20161;-69
2023/08/03 12:19:42;;;;;;;0.60;0.60;;;;;;;;;;5084176;28;20694;-69
2023/08/03 12:22:08;;;;;;;0.40;0.40;;;;;;;;;;5065866;28;20388;-68
2023/08/03 12:24:33;;;;;;;1.67;1.15;;;;;;;;;;5061342;28;20032;-69
2023/08/03 12:26:59;;;;;;;0.50;0.50;;;;;;;;;;5057307;28;20449;-69
2023/08/03 12:29:25;;;;;;;1.20;1.08;;;;;;;;;;5064368;28;20449;-69
2023/08/03 12:31:50;;;;;;;0.47;0.47;;;;;;;;;;5057210;28;20036;-70
2023/08/03 12:34:16;;;;;;;1.20;1.10;;;;;;;;;;5057225;28;20055;-69
2023/08/03 12:36:41;;;;;;;0.80;0.80;;;;;;;;;;5053369;28;20396;-70
2023/08/03 12:39:07;;;;;;;0.40;0.40;;;;;;;;;;5054730;28;20135;-69
2023/08/03 12:41:33;;;;;;;1.30;1.13;;;;;;;;;;5066303;28;20085;-69
2023/08/03 12:43:59;;;;;;;1.65;1.15;;;;;;;;;;5068975;28;20036;-69
2023/08/03 12:46:27;;;;;;;0.80;0.70;;;;;;;;;;5080554;28;20115;-69
2023/08/03 12:48:53;;;;;;;1.10;0.70;;;;;;;;;;5075143;28;20035;-68
2023/08/03 12:51:19;;;;;;;1.73;1.17;;;;;;;;;;5051897;28;20546;-69
2023/08/03 12:53:46;;;;;;;0.45;0.45;;;;;;;;;;5061419;28;20040;-69
2023/08/03 12:56:12;;;;;;;0.57;0.57;;;;;;;;;;5065192;28;20097;-70
2023/08/03 12:58:38;;;;;;;2.85;1.08;;;;;;;;;;5069973;28;20406;-69
2023/08/03 13:01:03;;;;;;;0.80;0.80;;;;;;;;;;5086223;28;20119;-69
2023/08/03 13:03:28;;;;;;;0.40;0.40;;;;;;;;;;5071697;28;20080;-70
2023/08/03 13:05:57;;;;;;;1.98;0.93;;;;;;;;;;5065587;28;20028;-72
2023/08/03 13:08:22;;;;;;;2.53;1.13;;;;;;;;;;5065766;28;20376;-69
2023/08/03 13:10:48;;;;;;;4.43;1.75;;;;;;;;;;5078797;28;20040;-68
2023/08/03 13:13:17;;;;;;;3.58;1.00;;;;;;;;;;5081197;28;20033;-69
2023/08/03 13:15:43;;;;;;;5.85;1.15;;;;;;;;;;5066460;28;20016;-71
2023/08/03 13:18:08;;;;;;;0.70;0.68;;;;;;;;;;5065922;28;20024;-69
2023/08/03 13:20:34;;;;;;;1.13;0.80;;;;;;;;;;5064077;28;20508;-68
2023/08/03 13:22:59;;;;;;;2.90;1.33;;;;;;;;;;5071803;28;20047;-71
2023/08/03 13:25:25;;;;;;;0.75;0.75;;;;;;;;;;5067692;28;20044;-70
2023/08/03 13:27:50;;;;;;;1.45;1.20;;;;;;;;;;5069369;28;20032;-70
2023/08/03 13:30:17;;;;;;;1.17;1.08;;;;;;;;;;5084314;28;20479;-68
2023/08/03 13:32:44;;;;;;;0.68;0.68;;;;;;;;;;5089100;28;20487;-69
2023/08/03 13:35:09;;;;;;;0.40;0.40;;;;;;;;;;5057470;28;20430;-69
2023/08/03 13:37:35;;;;;;;3.40;2.03;;;;;;;;;;5056019;28;20144;-69
2023/08/03 13:40:00;;;;;;;0.75;0.60;;;;;;;;;;5049069;28;20040;-69
2023/08/03 13:42:26;;;;;;;2.35;1.13;;;;;;;;;;5082682;28;20508;-69
2023/08/03 13:44:51;;;;;;;0.55;0.55;;;;;;;;;;5088455;28;20055;-69
2023/08/03 13:47:16;;;;;;;1.10;0.95;;;;;;;;;;5089082;28;20039;-71
2023/08/03 13:49:42;;;;;;;1.40;1.30;;;;;;;;;;5071023;28;20101;-69
2023/08/03 13:52:08;;;;;;;0.88;0.80;;;;;;;;;;5071035;28;20056;-69
2023/08/03 13:54:33;;;;;;;0.95;0.82;;;;;;;;;;5089042;28;20039;-68
2023/08/03 13:56:59;;;;;;;4.85;1.17;;;;;;;;;;5068712;28;20032;-69
2023/08/03 13:59:24;;;;;;;0.60;0.60;;;;;;;;;;5061964;28;20033;-71
2023/08/03 14:01:50;;;;;;;0.30;0.30;;;;;;;;;;5088960;28;20060;-71
2023/08/03 14:04:16;;;;;;;1.00;0.90;;;;;;;;;;5086514;28;20131;-68
2023/08/03 14:06:41;;;;;;;0.95;0.82;;;;;;;;;;5074658;28;20437;-70
2023/08/03 14:09:07;;;;;;;0.75;0.65;;;;;;;;;;5084802;28;20036;-68
2023/08/03 14:11:33;;;;;;;0.55;0.55;;;;;;;;;;5072930;28;20404;-68
2023/08/03 14:14:00;;;;;;;0.73;0.73;;;;;;;;;;5054589;28;20039;-69
2023/08/03 14:16:27;;;;;;;3.00;0.73;;;;;;;;;;5070685;28;20040;-68
2023/08/03 14:18:52;;;;;;;1.05;0.95;;;;;;;;;;5086126;28;20383;-70
2023/08/03 14:21:18;;;;;;;1.00;0.70;;;;;;;;;;5070072;28;20032;-69
2023/08/03 14:23:43;;;;;;;1.75;0.88;;;;;;;;;;5088638;28;20032;-70
2023/08/03 14:26:09;;;;;;;0.45;0.45;;;;;;;;;;5088429;28;20240;-69
2023/08/03 14:28:35;;;;;;;1.85;1.27;;;;;;;;;;5088225;28;20044;-69
2023/08/03 14:31:02;;;;;;;0.50;0.45;;;;;;;;;;5087707;28;20036;-69
2023/08/03 14:33:28;;;;;;;3.28;1.73;;;;;;;;;;5085194;28;20043;-69
2023/08/03 14:35:53;;;;;;;0.60;0.60;;;;;;;;;;5075816;28;20040;-69
2023/08/03 14:38:19;;;;;;;1.38;1.00;;;;;;;;;;5064870;28;20047;-69
2023/08/03 14:40:44;;;;;;;0.60;0.60;;;;;;;;;;5088384;28;20077;-69
2023/08/03 14:43:10;;;;;;;0.77;0.77;;;;;;;;;;5087650;28;20036;-68
2023/08/03 14:45:35;;;;;;;4.40;1.58;;;;;;;;;;5087667;28;20124;-69
2023/08/03 14:48:01;;;;;;;1.58;0.95;;;;;;;;;;5066546;28;20055;-71
2023/08/03 14:50:32;;;;;;;1.85;1.50;;;;;;;;;;5067068;28;20068;-70
2023/08/03 14:52:58;;;;;;;0.40;0.40;;;;;;;;;;5068220;28;20032;-69
2023/08/03 14:55:23;;;;;;;0.70;0.70;;;;;;;;;;5087784;28;20070;-69
2023/08/03 14:57:48;;;;;;;1.42;0.45;;;;;;;;;;5073835;28;20412;-69
2023/08/03 15:00:14;;;;;;;5.57;1.13;;;;;;;;;;5069043;28;20364;-69
2023/08/03 15:02:41;;;;;;;2.47;1.20;;;;;;;;;;5066643;28;20025;-68
2023/08/03 15:05:07;;;;;;;0.40;0.40;;;;;;;;;;5066143;28;20028;-69
2023/08/03 15:07:35;;;;;;;0.80;0.80;;;;;;;;;;5067530;28;20033;-69
2023/08/03 15:10:00;;;;;;;0.65;0.65;;;;;;;;;;5067472;28;20027;-69
2023/08/03 15:12:26;;;;;;;1.25;0.88;;;;;;;;;;5067343;28;20024;-69
2023/08/03 15:14:52;;;;;;;0.40;0.40;;;;;;;;;;5067712;28;20051;-68
2023/08/03 15:17:18;;;;;;;2.42;0.75;;;;;;;;;;5067317;28;20353;-69
2023/08/03 15:19:43;;;;;;;9.00;3.13;;;;;;;;;;5067423;28;20063;-71
2023/08/03 15:22:09;;;;;;;0.52;0.52;;;;;;;;;;5067434;28;20119;-69
2023/08/03 15:24:34;;;;;;;0.90;0.80;;;;;;;;;;5068684;28;20119;-69
2023/08/03 15:27:00;;;;;;;0.52;0.45;;;;;;;;;;5069068;28;20046;-69
2023/08/03 15:29:26;;;;;;;1.90;1.10;;;;;;;;;;5069445;28;20086;-68
2023/08/03 15:31:52;;;;;;;0.55;0.55;;;;;;;;;;5069031;28;20574;-71
2023/08/03 15:34:17;;;;;;;2.70;1.50;;;;;;;;;;5067769;28;20115;-69
2023/08/03 15:36:44;;;;;;;3.45;1.55;;;;;;;;;;5069197;28;20368;-69
2023/08/03 15:39:10;;;;;;;5.43;1.02;;;;;;;;;;5067652;28;20054;-69
2023/08/03 15:41:35;;;;;;;2.38;1.13;;;;;;;;;;5067832;28;20028;-68
2023/08/03 15:44:02;;;;;;;0.32;0.32;;;;;;;;;;5068493;28;20110;-72
2023/08/03 15:46:27;;;;;;;1.45;0.60;;;;;;;;;;5065526;28;20040;-69
2023/08/03 15:48:53;;;;;;;0.85;0.63;;;;;;;;;;5070826;28;20028;-70
2023/08/03 15:51:19;;;;;;;0.73;0.73;;;;;;;;;;5089296;28;20031;-68
2023/08/03 15:53:45;;;;;;;0.40;0.40;;;;;;;;;;5088691;28;20034;-69
2023/08/03 15:56:11;;;;;;;0.40;0.40;;;;;;;;;;5088091;28;20405;-68
2023/08/03 15:58:36;;;;;;;5.20;1.83;;;;;;;;;;5054503;28;20032;-68
2023/08/03 16:01:03;;;;;;;0.45;0.45;;;;;;;;;;5070521;28;20033;-68
2023/08/03 16:03:28;;;;;;;0.45;0.40;;;;;;;;;;5066931;28;20095;-69
2023/08/03 16:05:54;;;;;;;2.78;1.05;;;;;;;;;;5066667;28;20487;-70
2023/08/03 16:08:20;;;;;;;1.38;1.13;;;;;;;;;;5065390;28;20016;-68
2023/08/03 16:10:45;;;;;;;0.85;0.50;;;;;;;;;;5050983;28;20040;-69
2023/08/03 16:13:11;;;;;;;3.65;1.25;;;;;;;;;;5048013;28;20032;-67
2023/08/03 16:15:37;;;;;;;5.78;2.45;;;;;;;;;;5048606;28;20080;-70
2023/08/03 16:18:03;;;;;;;0.85;0.73;;;;;;;;;;5048862;28;20075;-68
2023/08/03 16:20:28;;;;;;;3.20;2.38;;;;;;;;;;5045903;28;20058;-69
2023/08/03 16:22:54;;;;;;;3.65;1.30;;;;;;;;;;5047797;28;20024;-68
2023/08/03 16:25:20;;;;;;;1.85;1.00;;;;;;;;;;5047888;28;20536;-72
2023/08/03 16:27:45;;;;;;;0.40;0.40;;;;;;;;;;5047344;28;20041;-69
2023/08/03 16:30:11;;;;;;;0.77;0.60;;;;;;;;;;5063992;28;20045;-69
2023/08/03 16:32:37;;;;;;;0.98;0.93;;;;;;;;;;5049209;28;20029;-68
2023/08/03 16:35:03;;;;;;;3.33;1.45;;;;;;;;;;5065247;28;20055;-68
2023/08/03 16:37:28;;;;;;;14.48;1.45;;;;;;;;;;5087808;28;20036;-70
2023/08/03 16:40:00;;;;;;;2.17;1.23;;;;;;;;;;5052774;28;20063;-69
2023/08/03 16:42:26;;;;;;;2.95;1.52;;;;;;;;;;5087718;28;20383;-67
2023/08/03 16:44:52;;;;;;;2.80;1.45;;;;;;;;;;5087107;28;20047;-68
2023/08/03 16:47:17;;;;;;;2.28;1.10;;;;;;;;;;5086807;28;20379;-68
2023/08/03 16:49:43;;;;;;;0.30;0.30;;;;;;;;;;5087006;28;20550;-68
2023/08/03 16:52:09;;;;;;;1.38;0.82;;;;;;;;;;5086583;28;20036;-69
2023/08/03 16:54:44;;;;;;;2.83;1.55;;;;;;;;;;5053747;28;20068;-69
2023/08/03 16:57:10;;;;;;;0.60;0.60;;;;;;;;;;5062424;28;20665;-69
2023/08/03 16:59:36;;;;;;;0.30;0.30;;;;;;;;;;5064402;28;20047;-69
2023/08/03 17:02:01;;;;;;;0.40;0.40;;;;;;;;;;5065627;28;20040;-68
2023/08/03 17:04:27;;;;;;;1.00;0.70;;;;;;;;;;5067431;28;20119;-69
2023/08/03 17:06:52;;;;;;;2.40;1.38;;;;;;;;;;5069132;28;20362;-68
2023/08/03 17:09:18;;;;;;;0.30;0.30;;;;;;;;;;5070635;28;20412;-71
2023/08/03 17:11:43;;;;;;;0.30;0.30;;;;;;;;;;5053880;28;20037;-68
2023/08/03 17:14:09;;;;;;;0.30;0.30;;;;;;;;;;5070198;28;20033;-68
2023/08/03 17:16:34;;;;;;;1.85;1.10;;;;;;;;;;5036279;28;20134;-68
2023/08/03 17:19:00;;;;;;;0.65;0.47;;;;;;;;;;5052053;28;20024;-69
2023/08/03 17:21:25;;;;;;;0.90;0.77;;;;;;;;;;5070419;28;20128;-68
2023/08/03 17:23:51;;;;;;;4.00;2.08;;;;;;;;;;5068911;28;20024;-68
2023/08/03 17:26:16;;;;;;;2.28;0.98;;;;;;;;;;5067069;28;20028;-68
2023/08/03 17:28:42;;;;;;;0.20;0.20;;;;;;;;;;5071256;28;20045;-68
2023/08/03 17:31:08;;;;;;;0.52;0.40;;;;;;;;;;5071047;28;20104;-69
2023/08/03 17:33:33;;;;;;;0.50;0.50;;;;;;;;;;5070571;28;20432;-69
2023/08/03 17:35:59;;;;;;;7.47;2.20;;;;;;;;;;5071313;28;20024;-69
2023/08/03 17:38:26;;;;;;;0.22;0.22;;;;;;;;;;5071505;28;20388;-69
2023/08/03 17:40:52;;;;;;;0.20;0.20;;;;;;;;;;5070940;28;20036;-69
2023/08/03 17:43:18;;;;;;;1.13;0.77;;;;;;;;;;5069619;28;20488;-69
2023/08/03 17:45:43;;;;;;;3.35;1.10;;;;;;;;;;5070739;28;20056;-69
2023/08/03 17:48:10;;;;;;;1.95;0.98;;;;;;;;;;5071524;28;20042;-68
2023/08/03 17:50:38;;;;;;;4.20;1.15;;;;;;;;;;5070966;28;20024;-68
2023/08/03 17:53:04;;;;;;;1.80;1.30;;;;;;;;;;5070495;28;20032;-68
2023/08/03 17:55:29;;;;;;;1.38;1.17;;;;;;;;;;5070299;28;20266;-69
2023/08/03 17:57:55;;;;;;;0.77;0.52;;;;;;;;;;5070997;28;20029;-68
2023/08/03 18:00:20;;;;;;;1.55;1.20;;;;;;;;;;5070961;28;20032;-69
2023/08/03 18:02:46;;;;;;;0.20;0.20;;;;;;;;;;5070679;28;20068;-68
2023/08/03 18:05:12;;;;;;;0.93;0.75;;;;;;;;;;5070985;28;20492;-69
2023/08/03 18:07:39;;;;;;;0.30;0.30;;;;;;;;;;5070525;28;20051;-69
2023/08/03 18:10:04;;;;;;;0.47;0.43;;;;;;;;;;5070793;28;20021;-69
2023/08/03 18:12:30;;;;;;;3.75;0.85;;;;;;;;;;5069582;28;20514;-68
2023/08/03 18:14:55;;;;;;;1.45;0.40;;;;;;;;;;5068923;28;20033;-69
2023/08/03 18:17:21;;;;;;;0.30;0.30;;;;;;;;;;5068918;28;20032;-70
2023/08/03 18:19:46;;;;;;;0.35;0.35;;;;;;;;;;5069211;28;20028;-69
2023/08/03 18:22:17;;;;;;;0.25;0.25;;;;;;;;;;5068087;28;20461;-72
2023/08/03 18:24:48;;;;;;;1.15;1.08;;;;;;;;;;5050659;28;20053;-70
2023/08/03 18:27:13;;;;;;;0.20;0.20;;;;;;;;;;5049501;28;20032;-69
2023/08/03 18:29:39;;;;;;;0.30;0.30;;;;;;;;;;5052617;28;20033;-71
2023/08/03 18:32:14;;;;;;;0.50;0.50;;;;;;;;;;5081083;28;20406;-71
2023/08/03 18:34:40;;;;;;;1.42;1.30;;;;;;;;;;5072507;28;20059;-68
2023/08/03 18:37:06;;;;;;;0.20;0.20;;;;;;;;;;5083104;28;20467;-69
2023/08/03 18:39:31;;;;;;;0.30;0.30;;;;;;;;;;5068252;28;20120;-70
2023/08/03 18:41:57;;;;;;;0.63;0.50;;;;;;;;;;5052595;28;20183;-69
2023/08/03 18:44:22;;;;;;;0.30;0.30;;;;;;;;;;5069974;28;20036;-69
2023/08/03 18:46:48;;;;;;;0.32;0.32;;;;;;;;;;5065372;28;20055;-69
2023/08/03 18:49:13;;;;;;;0.20;0.20;;;;;;;;;;5058770;28;20033;-72
2023/08/03 18:51:38;;;;;;;4.47;1.20;;;;;;;;;;5061503;28;20137;-71
2023/08/03 18:54:04;;;;;;;0.45;0.45;;;;;;;;;;5079480;28;20036;-69
2023/08/03 18:56:29;;;;;;;0.40;0.38;;;;;;;;;;5069547;28;20029;-69
2023/08/03 18:58:56;;;;;;;1.48;1.13;;;;;;;;;;5067814;28;20046;-69
2023/08/03 19:01:22;;;;;;;0.32;0.32;;;;;;;;;;5063682;28;20029;-69
2023/08/03 19:03:48;;;;;;;0.30;0.30;;;;;;;;;;5069534;28;20085;-69
2023/08/03 19:06:14;;;;;;;0.63;0.50;;;;;;;;;;5068917;28;20056;-71
2023/08/03 19:08:40;;;;;;;0.20;0.20;;;;;;;;;;5062789;28;20031;-71
2023/08/03 19:11:07;;;;;;;0.20;0.20;;;;;;;;;;5067852;28;20067;-71
2023/08/03 19:13:33;;;;;;;0.52;0.52;;;;;;;;;;5069511;28;20056;-70
2023/08/03 19:15:58;;;;;;;0.20;0.20;;;;;;;;;;5058129;28;20055;-70
2023/08/03 19:18:24;;;;;;;0.30;0.30;;;;;;;;;;5058493;28;20032;-69
2023/08/03 19:20:50;;;;;;;1.50;0.82;;;;;;;;;;5082246;28;20077;-69
2023/08/03 19:23:15;;;;;;;0.40;0.40;;;;;;;;;;5067614;28;20454;-69
2023/08/03 19:25:42;;;;;;;0.50;0.50;;;;;;;;;;5063194;28;20115;-70
2023/08/03 19:28:08;;;;;;;0.47;0.38;;;;;;;;;;5031671;28;20072;-70
2023/08/03 19:30:34;;;;;;;0.20;0.20;;;;;;;;;;5054989;28;20024;-69
2023/08/03 19:33:03;;;;;;;0.20;0.20;;;;;;;;;;5080801;28;20490;-71
2023/08/03 19:35:32;;;;;;;0.20;0.20;;;;;;;;;;5089663;28;20063;-69
2023/08/03 19:37:59;;;;;;;0.40;0.40;;;;;;;;;;5088051;28;20450;-71
2023/08/03 19:40:25;;;;;;;0.40;0.40;;;;;;;;;;5052446;28;20495;-70
2023/08/03 19:42:51;;;;;;;0.30;0.30;;;;;;;;;;5086968;28;20480;-70
2023/08/03 19:45:20;;;;;;;0.20;0.20;;;;;;;;;;5086047;28;20032;-70
2023/08/03 19:47:45;;;;;;;0.20;0.20;;;;;;;;;;5082211;28;20031;-69
2023/08/03 19:50:11;;;;;;;0.30;0.30;;;;;;;;;;5080367;28;20028;-71